createdAt,value
2018-07-02T00:00:48.334Z,1.20
2018-07-02T00:03:17.410Z,0.57
2018-07-02T00:05:51.931Z,0.83
2018-07-02T00:08:20.138Z,0.87
2018-07-02T00:10:48.277Z,1.00
2018-07-02T00:13:16.445Z,0.63
2018-07-02T00:15:44.780Z,0.73
2018-07-02T00:18:13.005Z,0.63
2018-07-02T00:20:42.098Z,1.83
2018-07-02T00:23:10.374Z,0.90
2018-07-02T00:25:38.638Z,1.40
2018-07-02T00:28:06.785Z,1.13
2018-07-02T00:30:35.005Z,0.60
2018-07-02T00:33:03.172Z,0.90
2018-07-02T00:35:31.326Z,0.70
2018-07-02T00:37:59.564Z,0.93
2018-07-02T00:40:27.796Z,1.13
2018-07-02T00:42:55.944Z,3.47
2018-07-02T00:45:24.646Z,0.83
2018-07-02T00:47:52.822Z,0.40
2018-07-02T00:50:21.002Z,0.70
2018-07-02T00:52:49.185Z,0.97
2018-07-02T00:55:17.655Z,0.70
2018-07-02T00:57:46.442Z,0.60
2018-07-02T01:00:15.871Z,1.23
2018-07-02T01:02:44.329Z,0.57
2018-07-02T01:05:13.105Z,1.33
2018-07-02T01:07:41.943Z,0.50
2018-07-02T01:10:10.091Z,0.60
2018-07-02T01:12:38.304Z,1.83
2018-07-02T01:15:06.488Z,1.00
2018-07-02T01:17:34.639Z,1.90
2018-07-02T01:20:02.779Z,0.53
2018-07-02T01:22:32.042Z,0.50
2018-07-02T01:25:01.260Z,1.53
2018-07-02T01:27:33.716Z,2.07
2018-07-02T01:30:02.744Z,0.60
2018-07-02T01:32:31.020Z,0.93
2018-07-02T01:34:59.423Z,0.83
2018-07-02T01:37:27.675Z,1.10
2018-07-02T01:39:55.864Z,0.40
2018-07-02T01:42:24.130Z,0.50
2018-07-02T01:44:52.234Z,0.90
2018-07-02T01:47:20.559Z,0.67
2018-07-02T01:49:48.752Z,1.07
2018-07-02T01:52:16.908Z,1.77
2018-07-02T01:54:45.291Z,0.70
2018-07-02T01:57:13.569Z,0.90
2018-07-02T01:59:41.748Z,1.90
2018-07-02T02:02:09.993Z,0.67
2018-07-02T02:04:38.130Z,1.03
2018-07-02T02:07:06.371Z,2.33
2018-07-02T02:09:34.621Z,0.90
2018-07-02T02:12:02.916Z,0.87
2018-07-02T02:14:31.066Z,1.57
2018-07-02T02:16:59.379Z,1.43
2018-07-02T02:19:28.243Z,1.60
2018-07-02T02:21:56.401Z,0.80
2018-07-02T02:24:24.543Z,0.83
2018-07-02T02:26:52.730Z,1.13
2018-07-02T02:29:20.965Z,0.83
2018-07-02T02:31:49.160Z,1.70
2018-07-02T02:34:17.336Z,0.90
2018-07-02T02:36:45.978Z,0.87
2018-07-02T02:39:14.478Z,0.83
2018-07-02T02:41:42.735Z,1.30
2018-07-02T02:44:11.642Z,1.87
2018-07-02T02:46:40.409Z,0.90
2018-07-02T02:49:08.670Z,1.00
2018-07-02T02:51:36.876Z,0.60
2018-07-02T02:54:05.155Z,0.60
2018-07-02T02:56:33.346Z,0.90
2018-07-02T02:59:01.461Z,0.87
2018-07-02T03:01:30.230Z,1.73
2018-07-02T03:03:58.484Z,3.13
2018-07-02T03:06:27.280Z,1.20
2018-07-02T03:08:55.446Z,0.80
2018-07-02T03:11:24.013Z,0.67
2018-07-02T03:13:52.179Z,1.90
2018-07-02T03:16:20.327Z,0.50
2018-07-02T03:18:48.508Z,1.27
2018-07-02T03:21:16.809Z,0.50
2018-07-02T03:23:44.976Z,1.47
2018-07-02T03:26:13.584Z,0.60
2018-07-02T03:28:41.720Z,0.60
2018-07-02T03:31:10.090Z,1.90
2018-07-02T03:33:38.293Z,0.50
2018-07-02T03:36:06.463Z,0.67
2018-07-02T03:38:34.657Z,1.30
2018-07-02T03:41:02.805Z,1.93
2018-07-02T03:43:31.065Z,1.47
2018-07-02T03:45:59.270Z,1.33
2018-07-02T03:48:27.418Z,0.57
2018-07-02T03:50:55.628Z,0.57
2018-07-02T03:53:23.878Z,0.93
2018-07-02T03:55:52.014Z,0.70
2018-07-02T03:58:20.146Z,1.27
2018-07-02T04:00:48.293Z,1.03
2018-07-02T04:03:16.584Z,0.80
2018-07-02T04:05:44.925Z,0.77
2018-07-02T04:08:13.111Z,0.67
2018-07-02T04:10:41.402Z,1.47
2018-07-02T04:13:09.561Z,0.67
2018-07-02T04:15:38.371Z,0.90
2018-07-02T04:18:07.174Z,1.70
2018-07-02T04:20:35.325Z,1.70
2018-07-02T04:23:03.704Z,0.93
2018-07-02T04:25:32.778Z,0.73
2018-07-02T04:28:01.494Z,1.43
2018-07-02T04:30:29.787Z,0.60
2018-07-02T04:32:58.059Z,0.80
2018-07-02T04:35:26.400Z,3.97
2018-07-02T04:37:54.693Z,2.33
2018-07-02T04:40:24.012Z,1.02
2018-07-02T04:42:52.308Z,0.72
2018-07-02T04:45:20.585Z,0.70
2018-07-02T04:47:48.797Z,0.80
2018-07-02T04:50:16.938Z,1.37
2018-07-02T04:52:45.323Z,0.60
2018-07-02T04:55:13.444Z,1.00
2018-07-02T04:57:41.612Z,1.95
2018-07-02T05:00:09.813Z,1.32
2018-07-02T05:02:37.975Z,1.40
2018-07-02T05:05:06.121Z,0.88
2018-07-02T05:07:34.370Z,2.45
2018-07-02T05:10:03.313Z,0.95
2018-07-02T05:12:31.486Z,0.55
2018-07-02T05:14:59.664Z,0.68
2018-07-02T05:17:27.824Z,0.95
2018-07-02T05:19:56.223Z,0.70
2018-07-02T05:22:24.393Z,0.70
2018-07-02T05:24:52.699Z,2.02
2018-07-02T05:27:20.847Z,5.12
2018-07-02T05:29:49.632Z,1.42
2018-07-02T05:32:17.813Z,0.98
2018-07-02T05:34:45.988Z,1.35
2018-07-02T05:37:14.163Z,0.78
2018-07-02T05:39:42.362Z,0.40
2018-07-02T05:42:10.522Z,1.10
2018-07-02T05:44:38.872Z,1.85
2018-07-02T05:47:07.139Z,1.50
2018-07-02T05:49:35.324Z,1.22
2018-07-02T05:52:03.680Z,1.00
2018-07-02T05:54:31.666Z,1.98
2018-07-02T05:56:59.817Z,1.15
2018-07-02T05:59:28.118Z,1.20
2018-07-02T06:01:56.389Z,2.77
2018-07-02T06:04:24.649Z,1.07
2018-07-02T06:06:52.829Z,1.70
2018-07-02T06:09:21.028Z,2.05
2018-07-02T06:11:49.288Z,1.95
2018-07-02T06:14:18.132Z,1.45
2018-07-02T06:16:46.328Z,1.05
2018-07-02T06:19:14.462Z,1.25
2018-07-02T06:21:42.795Z,0.68
2018-07-02T06:24:10.971Z,1.77
2018-07-02T06:26:39.234Z,1.92
2018-07-02T06:31:10.695Z,2.37
2018-07-02T06:33:38.876Z,2.02
2018-07-02T06:36:07.148Z,1.50
2018-07-02T06:38:35.758Z,2.80
2018-07-02T06:41:04.631Z,3.10
2018-07-02T06:43:32.831Z,2.23
2018-07-02T06:46:01.704Z,1.20
2018-07-02T06:48:29.866Z,2.53
2018-07-02T06:50:58.092Z,2.20
2018-07-02T06:53:26.334Z,3.13
2018-07-02T06:55:54.453Z,0.83
2018-07-02T06:58:23.533Z,1.73
2018-07-02T07:00:51.815Z,1.33
2018-07-02T07:03:20.250Z,3.13
2018-07-02T07:05:50.163Z,3.63
2018-07-02T07:08:18.760Z,1.17
2018-07-02T07:10:47.557Z,2.30
2018-07-02T07:13:16.306Z,2.50
2018-07-02T07:15:44.702Z,1.37
2018-07-02T07:18:12.972Z,2.10
2018-07-02T07:20:41.178Z,1.87
2018-07-02T07:23:09.355Z,1.23
2018-07-02T07:25:38.365Z,2.83
2018-07-02T07:28:06.540Z,2.63
2018-07-02T07:30:34.708Z,2.07
2018-07-02T07:33:02.892Z,1.30
2018-07-02T07:35:31.133Z,1.17
2018-07-02T07:37:59.411Z,1.00
2018-07-02T07:40:27.683Z,0.77
2018-07-02T07:42:55.965Z,2.83
2018-07-02T07:45:24.097Z,1.23
2018-07-02T07:47:52.917Z,0.73
2018-07-02T07:50:21.060Z,1.27
2018-07-02T07:52:49.221Z,2.20
2018-07-02T07:55:17.401Z,2.40
2018-07-02T07:57:45.578Z,2.17
2018-07-02T08:00:13.867Z,1.00
2018-07-02T08:02:42.025Z,4.37
2018-07-02T08:05:11.109Z,1.67
2018-07-02T08:07:39.925Z,2.20
2018-07-02T08:10:08.115Z,4.47
2018-07-02T08:12:36.276Z,1.37
2018-07-02T08:15:05.420Z,1.70
2018-07-02T08:17:33.568Z,0.70
2018-07-02T08:20:01.868Z,1.23
2018-07-02T08:22:30.007Z,1.30
2018-07-02T08:24:58.792Z,0.83
2018-07-02T08:27:26.923Z,0.63
2018-07-02T08:29:55.133Z,1.30
2018-07-02T08:32:23.452Z,0.50
2018-07-02T08:34:51.695Z,3.07
2018-07-02T08:37:19.967Z,0.80
2018-07-02T08:39:48.149Z,2.03
2018-07-02T08:42:16.618Z,1.13
2018-07-02T08:44:44.824Z,1.53
2018-07-02T08:47:13.283Z,2.63
2018-07-02T08:49:41.544Z,1.50
2018-07-02T08:52:09.756Z,1.20
2018-07-02T08:54:38.001Z,1.60
2018-07-02T08:57:06.315Z,1.30
2018-07-02T08:59:35.072Z,0.90
2018-07-02T09:02:04.165Z,0.77
2018-07-02T09:04:32.423Z,2.37
2018-07-02T09:07:01.125Z,2.40
2018-07-02T09:09:29.262Z,0.70
2018-07-02T09:11:57.468Z,1.60
2018-07-02T09:14:26.285Z,1.97
2018-07-02T09:16:54.486Z,1.07
2018-07-02T09:19:23.235Z,1.70
2018-07-02T09:21:51.430Z,2.90
2018-07-02T09:24:20.911Z,2.07
2018-07-02T09:26:49.110Z,3.83
2018-07-02T09:29:17.957Z,0.70
2018-07-02T09:31:46.667Z,0.93
2018-07-02T09:34:14.818Z,1.13
2018-07-02T09:36:42.981Z,1.40
2018-07-02T09:39:12.797Z,6.33
2018-07-02T09:41:42.022Z,1.03
2018-07-02T09:44:11.340Z,0.80
2018-07-02T09:46:44.778Z,2.00
2018-07-02T09:49:13.971Z,1.90
2018-07-02T09:51:42.768Z,2.03
2018-07-02T09:54:11.184Z,1.87
2018-07-02T09:56:39.510Z,1.43
2018-07-02T09:59:09.024Z,0.70
2018-07-02T10:01:39.381Z,1.93
2018-07-02T10:04:09.544Z,0.70
2018-07-02T10:06:37.830Z,1.37
2018-07-02T10:09:10.017Z,1.60
2018-07-02T10:11:38.355Z,2.30
2018-07-02T10:14:06.619Z,1.13
2018-07-02T10:20:09.203Z,4.10
2018-07-02T10:22:37.462Z,5.00
2018-07-02T10:25:06.567Z,5.20
2018-07-02T10:27:34.725Z,3.77
2018-07-02T10:30:03.675Z,3.03
2018-07-02T10:32:32.018Z,3.43
2018-07-02T10:35:00.176Z,3.40
2018-07-02T10:37:28.972Z,3.87
2018-07-02T10:39:57.259Z,4.00
2018-07-02T10:42:25.454Z,8.70
2018-07-02T10:44:53.689Z,3.77
2018-07-02T10:47:21.892Z,3.83
2018-07-02T10:49:50.544Z,3.33
2018-07-02T10:52:18.737Z,3.30
2018-07-02T10:54:47.714Z,3.10
2018-07-02T10:57:16.511Z,3.47
2018-07-02T10:59:47.059Z,3.50
2018-07-02T11:02:15.829Z,3.70
2018-07-02T11:04:44.018Z,3.50
2018-07-02T11:07:12.842Z,3.30
2018-07-02T11:09:41.918Z,4.13
2018-07-02T11:12:10.160Z,2.60
2018-07-02T11:14:38.640Z,3.43
2018-07-02T11:17:06.948Z,2.37
2018-07-02T11:19:35.740Z,2.70
2018-07-02T11:22:04.053Z,1.73
2018-07-02T11:24:32.299Z,1.90
2018-07-02T11:27:00.661Z,3.83
2018-07-02T11:29:29.431Z,3.73
2018-07-02T11:31:57.724Z,3.10
2018-07-02T11:34:25.932Z,3.60
2018-07-02T11:36:54.449Z,1.80
2018-07-02T11:39:23.519Z,2.50
2018-07-02T11:41:51.890Z,2.60
2018-07-02T11:44:20.777Z,3.30
2018-07-02T11:46:49.031Z,2.03
2018-07-02T11:49:17.232Z,1.93
2018-07-02T11:51:46.900Z,1.90
2018-07-02T11:54:15.162Z,2.27
2018-07-02T11:56:43.329Z,2.60
2018-07-02T11:59:11.488Z,2.50
2018-07-02T12:01:39.692Z,2.23
2018-07-02T12:04:08.403Z,2.27
2018-07-02T12:06:37.387Z,3.90
2018-07-02T12:09:07.352Z,2.10
2018-07-02T12:11:36.094Z,2.20
2018-07-02T12:14:04.834Z,2.77
2018-07-02T12:16:33.351Z,1.90
2018-07-02T12:19:01.487Z,1.70
2018-07-02T12:21:30.449Z,1.83
2018-07-02T12:23:58.569Z,1.70
2018-07-02T12:26:26.967Z,3.27
2018-07-02T12:28:55.904Z,1.67
2018-07-02T12:31:25.771Z,3.33
2018-07-02T12:33:54.020Z,2.33
2018-07-02T12:36:22.774Z,1.60
2018-07-02T12:38:51.050Z,2.13
2018-07-02T12:41:19.251Z,1.57
2018-07-02T12:43:48.218Z,1.70
2018-07-02T12:46:16.408Z,1.83
2018-07-02T12:48:45.435Z,3.80
2018-07-02T12:51:13.918Z,2.70
2018-07-02T12:53:42.829Z,2.13
2018-07-02T12:56:11.065Z,2.07
2018-07-02T12:58:40.169Z,1.90
2018-07-02T13:01:09.258Z,1.70
2018-07-02T13:03:39.469Z,2.30
2018-07-02T13:06:08.378Z,1.40
2018-07-02T13:08:36.546Z,1.50
2018-07-02T13:11:04.754Z,2.00
2018-07-02T13:13:33.061Z,1.80
2018-07-02T13:16:01.328Z,1.50
2018-07-02T13:18:33.664Z,2.07
2018-07-02T13:21:02.589Z,1.80
2018-07-02T13:23:31.261Z,1.97
2018-07-02T13:26:01.478Z,2.10
2018-07-02T13:28:30.228Z,2.73
2018-07-02T13:30:59.585Z,3.37
2018-07-02T13:33:28.226Z,3.17
2018-07-02T13:35:56.424Z,3.70
2018-07-02T13:38:24.572Z,3.60
2018-07-02T13:40:53.321Z,3.60
2018-07-02T13:43:21.493Z,3.27
2018-07-02T13:45:49.605Z,3.77
2018-07-02T13:48:18.398Z,2.77
2018-07-02T13:50:46.639Z,2.40
2018-07-02T13:53:14.857Z,2.50
2018-07-02T13:55:43.083Z,2.87
2018-07-02T13:58:11.291Z,2.20
2018-07-02T14:00:39.465Z,2.43
2018-07-02T14:03:07.664Z,2.70
2018-07-02T14:05:35.814Z,2.93
2018-07-02T14:08:03.972Z,4.17
2018-07-02T14:10:32.173Z,3.20
2018-07-02T14:13:00.373Z,2.70
2018-07-02T14:15:29.217Z,3.07
2018-07-02T14:17:58.011Z,5.30
2018-07-02T14:20:26.276Z,3.30
2018-07-02T14:22:54.551Z,3.20
2018-07-02T14:25:22.769Z,3.07
2018-07-02T14:27:51.014Z,2.90
2018-07-02T14:30:19.163Z,4.53
2018-07-02T14:32:47.450Z,3.10
2018-07-02T14:35:15.732Z,3.13
2018-07-02T14:37:44.538Z,3.27
2018-07-02T14:40:12.888Z,3.50
2018-07-02T14:42:41.623Z,3.60
2018-07-02T14:45:10.044Z,3.23
2018-07-02T14:47:38.759Z,3.40
2018-07-02T14:50:07.129Z,3.53
2018-07-02T14:52:35.299Z,3.00
2018-07-02T14:55:04.107Z,3.50
2018-07-02T14:57:32.847Z,2.77
2018-07-02T15:00:01.643Z,3.30
2018-07-02T15:02:30.074Z,4.13
2018-07-02T15:04:58.296Z,3.00
2018-07-02T15:07:27.136Z,2.90
2018-07-02T15:09:55.989Z,2.90
2018-07-02T15:12:24.177Z,3.20
2018-07-02T15:14:53.308Z,3.50
2018-07-02T15:17:21.457Z,3.30
2018-07-02T15:19:49.847Z,2.80
2018-07-02T15:22:18.022Z,2.70
2018-07-02T15:24:47.025Z,3.60
2018-07-02T15:27:15.312Z,2.80
2018-07-02T15:29:43.828Z,2.63
2018-07-02T15:32:12.036Z,2.63
2018-07-02T15:34:40.230Z,3.93
2018-07-02T15:37:08.988Z,2.67
2018-07-02T15:39:37.776Z,3.00
2018-07-02T15:42:05.966Z,2.97
2018-07-02T15:44:34.158Z,3.07
2018-07-02T15:47:02.330Z,2.30
2018-07-02T15:49:31.938Z,2.70
2018-07-02T15:52:00.434Z,2.87
2018-07-02T15:54:28.645Z,2.43
2018-07-02T15:56:56.834Z,2.77
2018-07-02T15:59:25.034Z,2.90
2018-07-02T16:01:53.173Z,2.47
2018-07-02T16:04:21.448Z,2.57
2018-07-02T16:06:49.778Z,2.77
2018-07-02T16:09:18.043Z,3.67
2018-07-02T16:11:46.219Z,2.97
2018-07-02T16:14:14.353Z,3.33
2018-07-02T16:16:42.673Z,3.13
2018-07-02T16:19:10.829Z,3.23
2018-07-02T16:21:40.181Z,2.63
2018-07-02T16:24:09.200Z,3.33
2018-07-02T16:26:37.457Z,3.63
2018-07-02T16:29:05.864Z,2.57
2018-07-02T16:31:34.648Z,2.00
2018-07-02T16:34:02.804Z,2.40
2018-07-02T16:36:31.261Z,2.27
2018-07-02T16:38:59.433Z,2.07
2018-07-02T16:41:27.621Z,2.30
2018-07-02T16:43:56.430Z,2.03
2018-07-02T16:46:24.630Z,1.67
2018-07-02T16:48:52.861Z,1.77
2018-07-02T16:51:21.187Z,1.60
2018-07-02T16:53:49.338Z,4.70
2018-07-02T16:56:17.628Z,2.33
2018-07-02T16:58:45.783Z,1.00
2018-07-02T17:01:14.500Z,2.57
2018-07-02T17:03:43.894Z,1.23
2018-07-02T17:06:12.088Z,2.03
2018-07-02T17:08:40.296Z,1.20
2018-07-02T17:11:08.529Z,1.77
2018-07-02T17:13:36.690Z,1.77
2018-07-02T17:16:05.388Z,1.37
2018-07-02T17:18:33.671Z,5.60
2018-07-02T17:21:01.813Z,2.15
2018-07-02T17:23:30.582Z,1.50
2018-07-02T17:25:58.748Z,2.67
2018-07-02T17:28:27.050Z,1.85
2018-07-02T17:30:55.240Z,2.77
2018-07-02T17:33:23.446Z,1.75
2018-07-02T17:35:52.313Z,3.02
2018-07-02T17:38:21.231Z,3.83
2018-07-02T17:40:49.556Z,2.22
2018-07-02T17:43:17.758Z,3.98
2018-07-02T17:45:45.934Z,2.62
2018-07-02T17:48:14.688Z,3.27
2018-07-02T17:50:43.587Z,2.90
2018-07-02T17:53:12.577Z,2.52
2018-07-02T17:55:41.275Z,2.55
2018-07-02T17:58:09.532Z,2.17
2018-07-02T18:00:37.830Z,5.00
2018-07-02T18:03:06.030Z,1.70
2018-07-02T18:05:34.677Z,2.58
2018-07-02T18:08:02.859Z,2.70
2018-07-02T18:10:30.992Z,2.45
2018-07-02T18:12:59.324Z,2.75
2018-07-02T18:15:27.576Z,2.95
2018-07-02T18:17:55.750Z,2.50
2018-07-02T18:20:25.065Z,1.95
2018-07-02T18:22:53.325Z,2.52
2018-07-02T18:25:21.963Z,2.30
2018-07-02T18:27:50.860Z,2.67
2018-07-02T18:30:19.716Z,2.15
2018-07-02T18:32:47.862Z,2.92
2018-07-02T18:35:16.029Z,1.92
2018-07-02T18:37:44.285Z,2.70
2018-07-02T18:40:13.822Z,2.60
2018-07-02T18:42:42.083Z,2.50
2018-07-02T18:45:10.261Z,2.75
2018-07-02T18:47:38.537Z,2.95
2018-07-02T18:50:07.871Z,1.72
2018-07-02T18:52:36.649Z,3.27
2018-07-02T18:55:05.223Z,1.77
2018-07-02T18:57:33.384Z,1.70
2018-07-02T19:00:02.489Z,1.63
2018-07-02T19:02:31.138Z,3.57
2018-07-02T19:04:59.622Z,2.30
2018-07-02T19:07:28.360Z,2.27
2018-07-02T19:09:56.754Z,1.67
2018-07-02T19:12:25.412Z,1.60
2018-07-02T19:14:53.599Z,4.23
2018-07-02T19:17:21.773Z,2.43
2018-07-02T19:19:49.920Z,1.50
2018-07-02T19:22:18.221Z,1.83
2018-07-02T19:24:46.499Z,1.70
2018-07-02T19:27:15.343Z,3.57
2018-07-02T19:29:44.440Z,2.10
2018-07-02T19:32:16.269Z,4.03
2018-07-02T19:34:45.095Z,2.03
2018-07-02T19:37:14.707Z,6.27
2018-07-02T19:39:43.090Z,6.30
2018-07-02T19:42:11.394Z,10.63
2018-07-02T19:44:39.574Z,4.83
2018-07-02T19:47:08.361Z,4.10
2018-07-02T19:49:36.904Z,2.73
2018-07-02T19:52:05.490Z,9.67
2018-07-02T19:54:33.642Z,5.93
2018-07-02T19:57:01.955Z,4.90
2018-07-02T19:59:30.891Z,4.83
2018-07-02T20:02:00.222Z,4.80
2018-07-02T20:04:29.128Z,6.90
2018-07-02T20:06:57.448Z,7.60
2018-07-02T20:09:26.401Z,6.30
2018-07-02T20:11:55.247Z,5.53
2018-07-02T20:14:23.506Z,4.07
2018-07-02T20:16:51.797Z,2.20
2018-07-02T20:19:20.059Z,3.40
2018-07-02T20:21:48.274Z,4.07
2018-07-02T20:24:16.684Z,3.27
2018-07-02T20:26:44.849Z,2.33
2018-07-02T20:29:13.022Z,2.23
2018-07-02T20:31:41.276Z,3.00
2018-07-02T20:34:10.264Z,3.87
2018-07-02T20:36:38.563Z,4.10
2018-07-02T20:39:07.973Z,4.50
2018-07-02T20:41:36.354Z,4.67
2018-07-02T20:44:05.144Z,4.00
2018-07-02T20:46:33.645Z,4.30
2018-07-02T20:49:02.401Z,3.87
2018-07-02T20:51:31.182Z,3.63
2018-07-02T20:53:59.472Z,4.37
2018-07-02T20:56:27.627Z,4.00
2018-07-02T20:58:55.884Z,4.57
2018-07-02T21:01:24.599Z,5.77
2018-07-02T21:03:52.965Z,6.07
2018-07-02T21:06:21.679Z,7.70
2018-07-02T21:08:49.878Z,6.33
2018-07-02T21:11:18.325Z,5.80
2018-07-02T21:13:47.502Z,6.20
2018-07-02T21:16:15.804Z,14.43
2018-07-02T21:18:44.124Z,13.97
2018-07-02T21:21:12.333Z,10.60
2018-07-02T21:23:40.445Z,6.27
2018-07-02T21:26:08.685Z,4.00
2018-07-02T21:28:36.873Z,4.40
2018-07-02T21:31:05.029Z,3.40
2018-07-02T21:33:33.198Z,4.50
2018-07-02T21:36:01.391Z,4.50
2018-07-02T21:38:29.552Z,5.33
2018-07-02T21:40:57.757Z,3.57
2018-07-02T21:43:26.000Z,3.27
2018-07-02T21:45:54.402Z,3.57
2018-07-02T21:48:22.585Z,2.37
2018-07-02T21:50:50.799Z,2.20
2018-07-02T21:53:19.612Z,2.67
2018-07-02T21:55:47.822Z,3.27
2018-07-02T21:58:16.270Z,2.63
2018-07-02T22:00:46.438Z,4.77
2018-07-02T22:03:14.572Z,3.13
2018-07-02T22:05:42.749Z,4.70
2018-07-02T22:08:11.873Z,3.10
2018-07-02T22:10:40.515Z,2.73
2018-07-02T22:13:08.833Z,3.43
2018-07-02T22:15:37.014Z,2.50
2018-07-02T22:18:06.161Z,3.07
2018-07-02T22:20:34.470Z,2.43
2018-07-02T22:23:02.615Z,4.03
2018-07-02T22:25:30.967Z,3.03
2018-07-02T22:27:59.092Z,2.20
2018-07-02T22:30:27.241Z,3.70
2018-07-02T22:32:55.426Z,2.27
2018-07-02T22:35:23.584Z,2.30
2018-07-02T22:37:52.352Z,2.97
2018-07-02T22:40:20.797Z,2.23
2018-07-02T22:42:50.139Z,4.43
2018-07-02T22:45:18.356Z,2.30
2018-07-02T22:47:46.570Z,2.10
2018-07-02T22:50:14.714Z,2.47
2018-07-02T22:52:43.565Z,2.53
2018-07-02T22:55:12.739Z,1.47
2018-07-02T22:57:40.963Z,1.63
2018-07-02T23:00:09.319Z,4.33
2018-07-02T23:02:37.574Z,3.27
2018-07-02T23:05:05.956Z,2.03
2018-07-02T23:07:34.248Z,3.57
2018-07-02T23:10:02.417Z,1.80
2018-07-02T23:12:30.584Z,2.07
2018-07-02T23:14:58.783Z,1.87
2018-07-02T23:17:26.919Z,2.97
2018-07-02T23:19:55.045Z,2.73
2018-07-02T23:22:23.183Z,3.70
2018-07-02T23:24:51.375Z,3.70
2018-07-02T23:27:19.618Z,4.17
2018-07-02T23:29:47.799Z,2.60
2018-07-02T23:32:16.091Z,3.97
2018-07-02T23:34:44.271Z,4.30
2018-07-02T23:37:12.564Z,3.63
2018-07-02T23:39:40.714Z,2.40
2018-07-02T23:42:08.852Z,2.10
2018-07-02T23:44:36.957Z,3.60
2018-07-02T23:47:05.234Z,2.17
2018-07-02T23:49:33.374Z,2.43
2018-07-02T23:52:01.567Z,3.13
2018-07-02T23:54:30.673Z,2.03
2018-07-02T23:56:58.953Z,1.67
2018-07-02T23:59:27.114Z,1.47
